Terminal Aerodrome Forecast
Issued by NWS Paducah, KY

Home | Current Version | Previous Version | Text Only | Print | Product List | Glossary On
Versions: 1 2 3 4 5 6 7 8 9 10 11 12 13 14 15 16 17
000
FTUS43 KPAH 231720
TAFEVV
TAF
KEVV 231720Z 2318/2418 03013G23KT P6SM SCT200
     FM232300 01011KT P6SM FEW200
     FM240300 02007KT P6SM SKC
     FM241600 04007KT P6SM BKN040=

USA.gov is the U.S. government's official web portal to all federal, state and local government web resources and services.